Time;durP1;ratioP1;P1;durP2;ratioP2;P2;SDS_P1;SDS_P2;PMS_P1;PMS_P2;Temp;Humidity;BMP_temperature;BMP_pressure;BME280_temperature;BME280_humidity;BME280_pressure;Samples;Min_cycle;Max_cycle;Signal;HPM_P1;HPM_P2
2021/12/06 00:02:18;;;;;;;24.23;15.98;;;;;;;6.07;65.20;100255.31;5023636;28;20072;-60
2021/12/06 00:04:45;;;;;;;22.10;15.77;;;;;;;5.90;65.75;100251.69;5021455;28;20042;-59
2021/12/06 00:07:17;;;;;;;23.85;15.68;;;;;;;5.96;65.82;100251.41;5031901;28;20447;-62
2021/12/06 00:09:44;;;;;;;25.65;14.93;;;;;;;6.03;65.83;100249.38;5032046;28;20049;-59
2021/12/06 00:12:14;;;;;;;23.85;15.82;;;;;;;6.06;65.74;100254.47;5031808;28;20133;-60
2021/12/06 00:14:41;;;;;;;20.50;14.32;;;;;;;6.07;66.13;100243.16;5031859;28;20494;-60
2021/12/06 00:17:11;;;;;;;22.23;15.05;;;;;;;6.12;66.00;100249.00;5031737;28;20045;-60
2021/12/06 00:19:40;;;;;;;20.98;14.43;;;;;;;6.11;66.23;100249.91;5017284;28;20494;-59
2021/12/06 00:22:11;;;;;;;22.35;14.13;;;;;;;6.15;66.13;100259.25;5011880;28;20061;-59
2021/12/06 00:24:38;;;;;;;20.02;14.15;;;;;;;6.18;66.09;100243.50;5012151;28;20058;-60
2021/12/06 00:27:08;;;;;;;19.67;13.88;;;;;;;6.16;66.37;100255.75;5011908;28;20521;-59
2021/12/06 00:29:36;;;;;;;20.38;13.10;;;;;;;6.09;66.72;100251.72;5012625;28;20446;-60
2021/12/06 00:32:03;;;;;;;16.77;12.05;;;;;;;6.18;66.37;100247.84;5015571;28;20046;-59
2021/12/06 00:34:34;;;;;;;18.05;12.40;;;;;;;6.20;66.62;100244.25;5027044;28;20049;-65
2021/12/06 00:37:17;;;;;;;16.52;11.73;;;;;;;6.18;66.68;100243.50;5035331;28;20056;-60
2021/12/06 00:39:55;;;;;;;16.75;11.95;;;;;;;6.17;66.69;100253.97;5033339;28;20136;-60
2021/12/06 00:42:27;;;;;;;18.42;11.93;;;;;;;6.08;66.91;100260.44;5033334;28;20077;-59
2021/12/06 00:44:54;;;;;;;18.40;12.52;;;;;;;6.14;66.75;100260.16;5033582;28;20045;-60
2021/12/06 00:47:21;;;;;;;19.55;12.38;;;;;;;6.14;66.77;100265.38;5034331;28;20045;-60
2021/12/06 00:49:48;;;;;;;17.52;12.40;;;;;;;6.19;66.62;100271.22;5022110;28;20394;-61
2021/12/06 00:52:15;;;;;;;19.20;12.70;;;;;;;6.10;66.93;100268.22;5014543;28;20478;-63
2021/12/06 00:54:43;;;;;;;16.70;12.02;;;;;;;6.05;66.98;100273.63;5014940;28;20655;-60
2021/12/06 00:57:11;;;;;;;17.70;12.88;;;;;;;6.13;66.95;100275.88;5015237;28;20495;-66
2021/12/06 00:59:39;;;;;;;18.65;12.75;;;;;;;6.02;67.16;100264.19;5015308;28;20080;-59
2021/12/06 01:02:08;;;;;;;17.02;12.57;;;;;;;6.00;67.37;100276.41;5014901;28;20077;-59
2021/12/06 01:04:38;;;;;;;16.45;12.60;;;;;;;6.02;67.36;100278.97;5014668;28;20077;-59
2021/12/06 01:07:06;;;;;;;19.30;12.85;;;;;;;6.04;67.47;100285.81;5014810;28;20058;-60
2021/12/06 01:09:34;;;;;;;17.45;12.70;;;;;;;5.99;67.36;100286.91;5014994;28;20136;-59
2021/12/06 01:12:01;;;;;;;20.83;12.77;;;;;;;5.96;67.55;100294.84;5014760;28;20054;-66
2021/12/06 01:14:27;;;;;;;17.85;12.95;;;;;;;5.92;67.80;100291.53;5014793;28;20050;-60
2021/12/06 01:16:54;;;;;;;18.27;12.57;;;;;;;5.86;67.82;100297.84;5014766;28;20049;-60
2021/12/06 01:19:28;;;;;;;16.23;12.25;;;;;;;5.80;68.11;100292.94;5014863;28;20428;-64
2021/12/06 01:22:25;;;;;;;16.17;12.32;;;;;;;5.82;67.93;100291.09;5029121;28;20103;-60
2021/12/06 01:24:55;;;;;;;18.10;12.18;;;;;;;5.83;67.88;100292.78;5034477;28;20437;-60
2021/12/06 01:40:35;;;;;;;15.02;11.20;;;;;;;5.83;67.86;100311.00;5014258;28;20041;-59
2021/12/06 01:43:06;;;;;;;17.48;12.05;;;;;;;5.93;67.77;100313.19;5014358;28;20052;-60
2021/12/06 01:45:32;;;;;;;17.30;12.05;;;;;;;5.95;67.45;100312.22;5029099;28;20049;-59
2021/12/06 01:47:59;;;;;;;15.60;11.43;;;;;;;6.00;67.40;100306.84;5034053;28;20068;-60
2021/12/06 01:50:28;;;;;;;16.73;11.50;;;;;;;5.98;67.52;100313.84;5034030;28;20049;-59
2021/12/06 01:53:00;;;;;;;17.00;12.07;;;;;;;6.02;67.55;100312.84;5033657;28;20141;-61
2021/12/06 01:55:30;;;;;;;16.88;12.35;;;;;;;5.99;67.46;100318.16;5033842;28;20054;-59
2021/12/06 01:57:58;;;;;;;16.20;12.10;;;;;;;6.00;67.64;100319.88;5033746;28;20077;-60
2021/12/06 02:00:53;;;;;;;18.70;12.80;;;;;;;5.95;67.74;100314.81;5031542;28;20059;-64
2021/12/06 02:03:20;;;;;;;17.80;12.50;;;;;;;5.87;67.86;100314.31;5012805;28;20088;-66
2021/12/06 02:05:48;;;;;;;19.10;13.82;;;;;;;5.89;67.90;100310.75;5013756;28;20058;-59
2021/12/06 02:08:15;;;;;;;19.65;13.50;;;;;;;6.02;67.71;100310.22;5013830;28;20053;-59
2021/12/06 02:10:42;;;;;;;19.08;13.00;;;;;;;5.97;67.82;100317.38;5013983;28;20451;-65
2021/12/06 02:13:10;;;;;;;19.85;12.77;;;;;;;5.91;68.01;100323.69;5013598;28;20100;-59
2021/12/06 02:18:14;;;;;;;20.30;14.00;;;;;;;5.86;68.37;100328.25;5013265;28;20510;-59
2021/12/06 02:20:49;;;;;;;21.10;14.88;;;;;;;5.92;68.33;100335.78;5013527;28;20052;-60
2021/12/06 02:23:18;;;;;;;19.17;14.20;;;;;;;5.96;68.28;100333.91;5013194;28;20050;-59
2021/12/06 02:25:45;;;;;;;19.92;13.98;;;;;;;5.97;68.47;100336.44;5013455;28;20482;-59
2021/12/06 02:28:12;;;;;;;21.05;14.45;;;;;;;6.01;68.58;100334.59;5013398;28;20490;-60
2021/12/06 02:30:39;;;;;;;21.05;15.07;;;;;;;6.06;68.42;100337.81;5013490;28;20498;-59
2021/12/06 02:33:06;;;;;;;19.70;14.48;;;;;;;6.12;68.23;100339.28;5013337;28;20050;-61
2021/12/06 02:35:33;;;;;;;21.15;14.18;;;;;;;6.12;68.40;100331.47;5013072;28;20046;-60
2021/12/06 02:38:03;;;;;;;20.52;14.75;;;;;;;6.07;68.58;100339.53;5012370;28;20049;-66
2021/12/06 02:40:32;;;;;;;21.42;14.95;;;;;;;5.97;68.82;100340.81;5024709;28;20042;-59
2021/12/06 02:43:03;;;;;;;20.52;14.27;;;;;;;5.92;68.80;100341.00;5032733;28;20049;-59
2021/12/06 02:45:31;;;;;;;20.80;14.40;;;;;;;5.89;69.05;100341.13;5032743;28;20052;-59
2021/12/06 02:48:01;;;;;;;18.45;13.63;;;;;;;5.86;69.30;100343.88;5015073;28;20105;-59
2021/12/06 02:50:33;;;;;;;19.92;13.48;;;;;;;5.89;69.31;100344.59;5013259;28;20053;-60
2021/12/06 02:53:00;;;;;;;19.42;13.68;;;;;;;5.80;69.53;100344.13;5012439;28;20080;-61
2021/12/06 02:58:01;;;;;;;19.73;14.65;;;;;;;5.89;69.59;100339.38;5012910;28;20049;-60
2021/12/06 03:00:28;;;;;;;18.48;13.50;;;;;;;5.87;69.45;100340.38;5013100;28;20050;-60
2021/12/06 03:02:55;;;;;;;21.23;14.68;;;;;;;5.94;68.96;100335.72;5012804;28;20054;-60
2021/12/06 03:05:22;;;;;;;19.23;14.02;;;;;;;5.82;69.31;100342.31;5012952;28;20054;-60
2021/12/06 03:07:57;;;;;;;22.45;13.77;;;;;;;5.86;69.53;100342.09;5029084;28;20490;-60
2021/12/06 03:10:23;;;;;;;19.35;14.57;;;;;;;5.82;69.30;100337.94;5015447;28;20099;-61
2021/12/06 03:12:50;;;;;;;20.73;14.25;;;;;;;5.81;69.35;100331.03;5012825;28;20080;-60
2021/12/06 03:15:17;;;;;;;19.48;13.68;;;;;;;5.87;69.09;100336.00;5012735;28;20047;-60
2021/12/06 03:17:45;;;;;;;19.10;14.32;;;;;;;5.87;69.05;100337.75;5012694;28;20060;-60
2021/12/06 03:20:14;;;;;;;19.90;12.90;;;;;;;5.94;68.89;100333.97;5012755;28;20073;-59
2021/12/06 03:22:44;;;;;;;20.90;13.73;;;;;;;5.95;68.58;100343.47;5012700;28;20049;-62
2021/12/06 03:25:14;;;;;;;19.95;13.82;;;;;;;5.95;68.74;100340.84;5012265;28;20172;-60
2021/12/06 03:27:41;;;;;;;20.35;14.52;;;;;;;5.87;68.61;100346.41;5012754;28;20077;-66
2021/12/06 03:30:09;;;;;;;19.75;13.68;;;;;;;5.82;68.66;100347.53;5012575;28;20461;-60
2021/12/06 03:32:37;;;;;;;20.15;13.43;;;;;;;5.88;68.60;100347.28;5012520;28;20046;-59
2021/12/06 03:35:05;;;;;;;22.75;12.60;;;;;;;5.85;68.28;100355.19;5012396;28;20046;-60
2021/12/06 03:37:32;;;;;;;25.98;15.38;;;;;;;5.86;68.52;100357.72;5012663;28;20057;-60
2021/12/06 03:39:58;;;;;;;21.15;13.77;;;;;;;5.81;68.66;100354.47;5011886;28;20053;-59
2021/12/06 03:42:25;;;;;;;19.73;12.88;;;;;;;5.83;68.26;100357.88;5012611;28;20046;-60
2021/12/06 03:44:53;;;;;;;18.27;13.20;;;;;;;5.77;68.56;100355.53;5012579;28;20042;-60
2021/12/06 03:47:29;;;;;;;20.50;13.43;;;;;;;5.75;68.52;100353.91;5012522;28;20050;-59
2021/12/06 03:49:57;;;;;;;18.35;13.07;;;;;;;5.78;68.38;100357.22;5028963;28;20052;-59
2021/12/06 03:52:24;;;;;;;20.85;13.68;;;;;;;5.69;68.62;100350.66;5032243;28;20086;-61
2021/12/06 03:54:51;;;;;;;20.63;13.60;;;;;;;5.56;68.62;100359.88;5032118;28;20445;-60
2021/12/06 03:57:19;;;;;;;21.52;13.57;;;;;;;5.60;68.49;100358.00;5019477;28;20483;-60
2021/12/06 03:59:47;;;;;;;19.70;13.20;;;;;;;5.54;68.58;100369.53;5012418;28;20057;-60
2021/12/06 04:02:14;;;;;;;21.08;13.43;;;;;;;5.62;68.35;100372.63;5011394;28;20046;-59
2021/12/06 04:04:41;;;;;;;21.38;14.23;;;;;;;5.60;68.57;100374.47;5028558;28;20103;-59
2021/12/06 04:07:09;;;;;;;19.80;13.77;;;;;;;5.63;68.43;100381.31;5032354;28;20049;-59
2021/12/06 04:09:36;;;;;;;21.33;14.20;;;;;;;5.65;68.40;100382.06;5032508;28;20049;-65
2021/12/06 04:12:06;;;;;;;22.45;14.30;;;;;;;5.69;68.20;100388.88;5026847;28;20049;-59
2021/12/06 04:14:33;;;;;;;22.60;13.77;;;;;;;5.65;68.40;100387.28;5012607;28;20054;-59
2021/12/06 04:17:00;;;;;;;21.42;13.70;;;;;;;5.65;68.35;100384.69;5012708;28;20057;-60
2021/12/06 04:19:27;;;;;;;22.63;14.30;;;;;;;5.58;68.51;100383.25;5013169;28;20213;-59
2021/12/06 04:21:54;;;;;;;21.52;14.27;;;;;;;5.52;68.25;100384.34;5012406;28;20123;-59
2021/12/06 04:24:21;;;;;;;21.25;14.45;;;;;;;5.49;68.58;100382.72;5012269;28;20490;-60
2021/12/06 04:26:48;;;;;;;23.63;15.05;;;;;;;5.58;68.47;100391.91;5012516;28;20061;-59
2021/12/06 04:29:24;;;;;;;29.38;16.40;;;;;;;5.58;68.34;100383.25;5011762;28;20042;-58
2021/12/06 04:32:02;;;;;;;23.70;15.73;;;;;;;5.61;68.40;100390.94;5012362;28;20057;-60
2021/12/06 04:34:35;;;;;;;24.98;15.45;;;;;;;5.63;68.26;100381.31;5031139;28;20057;-59
2021/12/06 04:37:04;;;;;;;21.73;15.57;;;;;;;5.59;68.50;100383.19;5031917;28;20405;-59
2021/12/06 04:39:32;;;;;;;23.42;15.65;;;;;;;5.42;68.84;100386.47;5031015;28;20068;-59
2021/12/06 04:41:59;;;;;;;20.77;15.70;;;;;;;5.51;68.75;100388.72;5032141;28;20064;-60
2021/12/06 04:44:26;;;;;;;24.13;16.42;;;;;;;5.55;68.58;100385.06;5031714;28;20100;-59
2021/12/06 04:46:54;;;;;;;22.80;15.82;;;;;;;5.60;68.40;100397.03;5031979;28;20069;-59
2021/12/06 04:49:21;;;;;;;24.55;16.35;;;;;;;5.61;68.29;100401.34;5031568;28;20049;-59
2021/12/06 04:51:50;;;;;;;20.77;14.55;;;;;;;5.59;67.97;100401.41;5031685;28;20045;-62
2021/12/06 04:54:19;;;;;;;22.73;16.00;;;;;;;5.30;69.22;100405.22;5031558;28;20478;-59
2021/12/06 04:56:59;;;;;;;25.13;17.08;;;;;;;5.21;69.58;100406.41;5031647;28;20049;-59
2021/12/06 04:59:38;;;;;;;23.58;16.60;;;;;;;5.31;69.13;100412.94;5031691;28;20049;-59
2021/12/06 05:02:11;;;;;;;26.80;17.35;;;;;;;5.45;68.81;100415.00;5031794;28;20049;-59
2021/12/06 05:04:43;;;;;;;29.00;17.88;;;;;;;5.51;68.68;100417.34;5031556;28;20522;-59
2021/12/06 05:07:19;;;;;;;25.15;17.45;;;;;;;5.55;68.41;100423.28;5030604;28;20494;-60
2021/12/06 05:09:46;;;;;;;26.13;17.65;;;;;;;5.47;68.54;100428.78;5031467;28;20045;-59
2021/12/06 05:12:15;;;;;;;26.42;18.10;;;;;;;5.56;68.47;100430.16;5031449;28;20054;-59
2021/12/06 05:14:42;;;;;;;24.35;16.80;;;;;;;5.63;68.21;100431.59;5031780;28;20049;-60
2021/12/06 05:17:09;;;;;;;26.50;18.42;;;;;;;5.61;68.27;100427.38;5030800;28;20057;-59
2021/12/06 05:19:37;;;;;;;23.73;16.50;;;;;;;5.53;68.50;100435.50;5031198;28;20049;-59
2021/12/06 05:22:05;;;;;;;23.90;17.63;;;;;;;5.59;68.13;100437.00;5017572;28;20410;-60
2021/12/06 05:24:32;;;;;;;26.63;18.10;;;;;;;5.57;68.25;100437.06;5019557;28;20057;-59
2021/12/06 05:26:59;;;;;;;26.48;17.80;;;;;;;5.60;68.29;100444.75;5021342;28;20075;-60
2021/12/06 05:29:28;;;;;;;25.67;16.92;;;;;;;5.54;68.34;100439.78;5014508;28;20073;-59
2021/12/06 05:31:57;;;;;;;25.90;17.73;;;;;;;5.52;68.25;100444.19;5022429;28;20042;-59
2021/12/06 05:34:32;;;;;;;25.92;17.45;;;;;;;5.53;68.34;100451.09;5031008;28;20052;-58
2021/12/06 05:37:00;;;;;;;26.85;17.40;;;;;;;5.52;68.28;100452.00;5012556;28;20045;-68
2021/12/06 05:39:30;;;;;;;25.40;16.70;;;;;;;5.48;68.59;100464.28;5011112;28;20038;-59
2021/12/06 05:41:59;;;;;;;24.42;16.83;;;;;;;5.51;68.33;100461.59;5018137;28;20124;-59
2021/12/06 05:44:27;;;;;;;24.02;16.83;;;;;;;5.51;68.14;100463.31;5030969;28;20107;-59
2021/12/06 05:46:55;;;;;;;24.70;16.52;;;;;;;5.49;68.37;100466.00;5030611;28;20414;-59
2021/12/06 05:49:23;;;;;;;23.73;16.60;;;;;;;5.46;68.39;100470.47;5030670;28;20046;-59
2021/12/06 05:51:50;;;;;;;23.73;16.55;;;;;;;5.48;68.00;100474.72;5030340;28;20068;-61
2021/12/06 05:54:17;;;;;;;27.15;16.88;;;;;;;5.49;67.98;100475.56;5030913;28;20059;-59
2021/12/06 05:56:44;;;;;;;24.70;16.70;;;;;;;5.48;68.19;100479.06;5030749;28;20057;-59
2021/12/06 05:59:15;;;;;;;24.25;16.10;;;;;;;5.47;68.06;100477.38;5025168;28;20301;-60
2021/12/06 06:01:41;;;;;;;30.17;18.83;;;;;;;5.50;68.00;100478.09;5024483;28;20048;-60
2021/12/06 06:04:08;;;;;;;26.13;17.25;;;;;;;5.50;67.89;100482.47;5029981;28;20815;-60
2021/12/06 06:06:41;;;;;;;28.95;17.38;;;;;;;5.50;67.97;100487.69;5030427;28;20053;-59
2021/12/06 06:09:13;;;;;;;23.63;16.60;;;;;;;5.46;67.84;100486.94;5029886;28;20080;-62
2021/12/06 06:11:41;;;;;;;25.50;16.45;;;;;;;5.45;67.75;100493.06;5030233;28;20054;-60
2021/12/06 06:14:09;;;;;;;22.67;15.18;;;;;;;5.43;67.80;100505.28;5030501;28;20475;-60
2021/12/06 06:16:46;;;;;;;24.55;16.23;;;;;;;5.40;67.74;100508.00;5027135;28;20147;-61
2021/12/06 06:19:16;;;;;;;24.23;16.48;;;;;;;5.37;67.76;100505.50;5010341;28;20053;-60
2021/12/06 06:21:43;;;;;;;25.83;16.05;;;;;;;5.35;67.77;100505.56;5010234;28;20410;-60
2021/12/06 06:24:09;;;;;;;26.60;16.35;;;;;;;5.34;67.53;100506.47;5009845;28;20058;-60
2021/12/06 06:26:36;;;;;;;25.48;15.57;;;;;;;5.34;67.62;100514.28;5010327;28;20072;-60
2021/12/06 06:29:03;;;;;;;24.20;15.45;;;;;;;5.34;67.40;100513.44;5009520;28;20100;-60
2021/12/06 06:31:30;;;;;;;22.60;15.82;;;;;;;5.32;67.51;100518.72;5010360;28;20054;-60
2021/12/06 06:33:57;;;;;;;23.25;15.80;;;;;;;5.28;67.32;100518.88;5013352;28;20046;-59
2021/12/06 06:36:24;;;;;;;24.65;15.73;;;;;;;5.28;67.26;100517.13;5009480;28;20053;-60
2021/12/06 06:38:51;;;;;;;22.90;15.65;;;;;;;5.25;67.39;100517.25;5012686;28;20045;-59
2021/12/06 06:41:17;;;;;;;21.60;14.40;;;;;;;5.23;67.36;100517.31;5010086;28;20050;-62
2021/12/06 06:43:44;;;;;;;23.60;15.23;;;;;;;5.23;67.27;100532.06;5010015;28;20052;-59
2021/12/06 06:46:11;;;;;;;29.65;17.33;;;;;;;5.19;67.29;100530.47;5022819;28;20045;-59
2021/12/06 15:17:00;;;;;;;94.60;44.70;;;;;;;9.43;55.16;100695.16;5042893;28;20429;-66
2021/12/06 15:19:27;;;;;;;76.55;44.97;;;;;;;9.33;56.23;100696.53;5046192;28;20087;-59
2021/12/06 15:22:02;;;;;;;127.80;63.40;;;;;;;9.20;56.93;100704.19;5028583;28;20056;-60
2021/12/06 15:24:29;;;;;;;58.85;31.08;;;;;;;9.08;57.38;100694.38;5031408;28;20058;-61
2021/12/06 15:26:59;;;;;;;63.45;36.35;;;;;;;8.97;57.87;100700.13;5026662;28;20037;-59
2021/12/06 15:29:30;;;;;;;46.80;27.00;;;;;;;8.90;58.24;100701.38;5025277;28;20038;-62
2021/12/06 15:32:01;;;;;;;43.03;25.40;;;;;;;8.81;58.72;100703.53;5025290;28;20045;-61
2021/12/06 15:34:32;;;;;;;53.78;29.83;;;;;;;8.75;58.89;100700.38;5025424;28;20046;-61
2021/12/06 15:36:59;;;;;;;45.38;27.80;;;;;;;8.70;59.09;100702.34;5023624;28;20060;-61
2021/12/06 15:39:28;;;;;;;45.03;27.60;;;;;;;8.65;59.17;100702.59;5026080;28;20045;-61
2021/12/06 15:42:17;;;;;;;45.85;25.17;;;;;;;8.58;58.95;100712.53;5025382;28;20053;-61
2021/12/06 15:44:51;;;;;;;69.38;39.40;;;;;;;8.55;59.01;100709.22;5025242;28;20059;-61
2021/12/06 15:47:29;;;;;;;31.42;19.85;;;;;;;8.55;58.78;100709.22;5025428;28;20049;-66
2021/12/06 15:49:57;;;;;;;37.30;23.35;;;;;;;8.52;58.95;100711.97;5025468;28;20100;-60
2021/12/06 15:52:27;;;;;;;35.55;21.67;;;;;;;8.52;58.84;100707.59;5025772;28;20061;-60
2021/12/06 15:54:59;;;;;;;36.50;22.35;;;;;;;8.47;58.82;100714.81;5023818;28;20046;-61
2021/12/06 15:57:29;;;;;;;38.38;25.10;;;;;;;8.42;58.86;100716.78;5025241;28;20045;-59
2021/12/06 16:00:24;;;;;;;46.00;25.05;;;;;;;8.32;59.04;100725.03;5024492;28;20064;-59
2021/12/06 16:02:52;;;;;;;36.42;25.40;;;;;;;8.26;59.13;100722.72;5023692;28;20054;-59
2021/12/06 16:05:32;;;;;;;31.92;20.30;;;;;;;8.20;59.15;100716.94;5027083;28;20048;-68
2021/12/06 16:08:05;;;;;;;44.85;26.60;;;;;;;8.18;58.85;100715.22;5033252;28;20604;-59
2021/12/06 16:10:36;;;;;;;;;;;;;;;8.11;58.33;100720.81;5032439;28;20049;-61
2021/12/06 16:13:14;;;;;;;30.55;16.48;;;;;;;8.74;57.56;100714.38;5025360;28;19921;-60
2021/12/06 16:15:44;;;;;;;31.55;16.80;;;;;;;9.35;56.97;100712.19;5022085;28;20049;-62
2021/12/06 16:18:56;;;;;;;28.00;16.52;;;;;;;8.81;57.19;100718.38;5065671;28;20394;-63
2021/12/06 16:21:35;;;;;;;24.10;15.63;;;;;;;8.61;56.84;100722.00;5055882;28;20098;-70
2021/12/06 16:24:03;;;;;;;22.35;14.65;;;;;;;8.52;56.43;100723.28;5049318;28;20038;-70
2021/12/06 16:26:34;;;;;;;23.75;14.13;;;;;;;8.42;56.02;100725.47;5053939;28;20041;-65
2021/12/06 16:29:09;;;;;;;24.73;14.57;;;;;;;8.35;55.52;100731.88;5052285;28;20048;-61
2021/12/06 16:31:39;;;;;;;25.27;15.05;;;;;;;8.25;55.76;100743.69;5054231;28;20124;-63
2021/12/06 16:34:09;;;;;;;19.50;14.23;;;;;;;8.17;55.68;100739.66;5052997;28;20428;-61
2021/12/06 16:36:43;;;;;;;22.92;15.05;;;;;;;8.13;55.55;100730.28;5045759;28;20551;-61
2021/12/06 16:39:35;;;;;;;27.05;17.95;;;;;;;8.13;55.25;100735.50;5046229;28;20045;-62
2021/12/06 16:42:12;;;;;;;24.35;15.50;;;;;;;8.06;55.10;100741.94;5053571;28;20048;-62
2021/12/06 16:44:47;;;;;;;36.40;19.23;;;;;;;8.00;54.85;100742.25;5055116;28;20041;-62
2021/12/06 16:47:15;;;;;;;33.00;18.45;;;;;;;7.93;54.92;100746.88;5065854;28;20059;-70
2021/12/06 16:49:45;;;;;;;29.88;16.15;;;;;;;7.87;55.10;100752.38;5065808;28;20055;-61
2021/12/06 16:52:23;;;;;;;28.63;17.10;;;;;;;7.82;54.87;100760.44;5065439;28;20059;-61
2021/12/06 16:55:04;;;;;;;28.83;14.27;;;;;;;7.82;54.71;100763.06;5058492;28;20910;-61
2021/12/06 16:57:57;;;;;;;25.75;14.93;;;;;;;7.76;54.46;100767.72;5052425;28;20095;-61
2021/12/06 17:00:42;;;;;;;27.13;15.90;;;;;;;7.77;54.19;100775.47;5051304;28;20128;-61
2021/12/06 17:03:44;;;;;;;23.42;15.07;;;;;;;7.70;54.24;100781.88;5051582;28;20409;-63
2021/12/06 17:06:21;;;;;;;24.50;14.73;;;;;;;7.66;54.35;100780.31;5051637;28;20080;-65
2021/12/06 17:09:09;;;;;;;;;;;;;;;7.58;54.47;100790.25;5056386;28;20649;-62
2021/12/06 17:11:38;;;;;;;25.65;14.52;;;;;;;7.56;54.71;100784.25;5054901;28;19921;-61
2021/12/06 17:14:14;;;;;;;27.70;16.17;;;;;;;7.54;54.45;100788.69;5050316;28;20048;-61
2021/12/06 17:16:46;;;;;;;36.25;19.85;;;;;;;7.46;54.72;100789.84;5055096;28;20048;-60
2021/12/06 17:19:16;;;;;;;47.15;23.40;;;;;;;7.44;54.70;100786.47;5045623;28;20461;-71
2021/12/06 17:21:46;;;;;;;69.03;30.65;;;;;;;7.48;54.36;100788.03;5044993;28;20045;-60
2021/12/06 17:24:13;;;;;;;59.72;28.67;;;;;;;7.44;54.32;100786.47;5045193;28;20107;-60
2021/12/06 17:26:43;;;;;;;49.17;24.77;;;;;;;7.41;54.56;100797.03;5045274;28;20057;-61
2021/12/06 17:29:16;;;;;;;41.03;22.10;;;;;;;7.38;54.69;100801.53;5035413;28;20049;-63
2021/12/06 17:31:47;;;;;;;38.50;20.90;;;;;;;7.28;54.68;100807.16;5012051;28;20050;-62
2021/12/06 17:34:19;;;;;;;34.78;19.48;;;;;;;7.15;54.73;100803.38;5015679;28;20073;-62
2021/12/06 17:36:49;;;;;;;34.60;20.05;;;;;;;7.10;54.74;100807.94;5037064;28;20045;-61
2021/12/06 17:39:21;;;;;;;33.30;20.38;;;;;;;7.04;54.73;100809.03;5040655;28;20067;-61
2021/12/06 17:41:51;;;;;;;37.58;23.50;;;;;;;7.03;54.65;100815.16;5032041;28;20053;-61
2021/12/06 17:44:21;;;;;;;34.65;20.63;;;;;;;6.99;54.70;100813.56;5031379;28;20049;-60
2021/12/06 17:46:48;;;;;;;30.70;18.73;;;;;;;6.94;54.65;100808.53;5030169;28;20056;-61
2021/12/06 17:49:17;;;;;;;29.58;17.98;;;;;;;6.89;54.88;100807.88;5031185;28;20045;-63
2021/12/06 17:51:46;;;;;;;28.02;18.23;;;;;;;6.85;54.82;100807.13;5031018;28;20052;-64
2021/12/06 17:54:16;;;;;;;33.40;20.60;;;;;;;6.80;55.08;100816.91;5031428;28;20063;-64
2021/12/06 17:56:44;;;;;;;48.90;26.95;;;;;;;6.75;55.37;100815.41;5031652;28;20263;-64
2021/12/06 17:59:24;;;;;;;55.58;32.30;;;;;;;6.75;55.29;100820.63;5031248;28;20057;-63
2021/12/06 18:01:58;;;;;;;57.13;33.65;;;;;;;6.74;55.08;100824.97;5022641;28;20041;-63
2021/12/06 18:04:30;;;;;;;37.33;22.67;;;;;;;7.59;54.53;100824.16;5011512;28;20138;-65
2021/12/06 18:06:57;;;;;;;49.55;30.70;;;;;;;7.17;55.62;100827.63;5011146;28;20042;-62
2021/12/06 18:09:27;;;;;;;45.90;28.33;;;;;;;7.03;55.42;100830.81;5011305;28;20145;-62
2021/12/06 18:11:58;;;;;;;47.20;28.65;;;;;;;6.94;55.37;100832.00;5011140;28;20053;-62
2021/12/06 18:14:28;;;;;;;46.28;25.80;;;;;;;6.91;55.36;100836.50;5011266;28;20061;-63
2021/12/06 18:16:56;;;;;;;40.50;25.08;;;;;;;6.79;55.41;100833.50;5011158;28;20058;-62
2021/12/06 18:19:23;;;;;;;37.70;25.33;;;;;;;6.72;55.46;100831.16;5025551;28;20482;-63
2021/12/06 18:21:53;;;;;;;38.97;23.05;;;;;;;6.68;55.59;100844.34;5030375;28;21462;-62
2021/12/06 18:24:21;;;;;;;38.03;22.88;;;;;;;6.69;55.44;100853.88;5041200;28;20047;-62
2021/12/06 18:26:48;;;;;;;35.05;20.88;;;;;;;6.68;55.51;100856.53;5035790;28;20098;-62
2021/12/06 18:29:15;;;;;;;32.42;20.77;;;;;;;6.63;55.50;100858.47;5030270;28;20049;-62
2021/12/06 18:31:45;;;;;;;31.85;21.92;;;;;;;6.60;55.48;100858.56;5030659;28;20050;-62
2021/12/06 18:34:13;;;;;;;35.70;21.98;;;;;;;6.57;55.47;100856.09;5018550;28;20494;-62
2021/12/06 18:36:43;;;;;;;33.63;21.35;;;;;;;6.54;55.61;100850.06;5010370;28;20057;-61
2021/12/06 18:39:14;;;;;;;35.70;22.02;;;;;;;6.55;55.45;100850.91;5010347;28;20053;-61
2021/12/06 18:41:41;;;;;;;36.50;21.58;;;;;;;6.49;55.51;100859.00;5009465;28;20050;-62
2021/12/06 18:44:13;;;;;;;36.78;21.88;;;;;;;6.47;55.82;100866.00;5010436;28;20056;-63
2021/12/06 18:46:44;;;;;;;32.55;20.88;;;;;;;6.43;55.76;100867.03;5019219;28;20045;-62
2021/12/06 18:49:18;;;;;;;34.35;21.70;;;;;;;6.38;55.86;100870.66;5010818;28;20057;-62
2021/12/06 18:51:48;;;;;;;30.10;20.10;;;;;;;6.33;56.11;100874.34;5013779;28;20046;-62
2021/12/06 18:54:16;;;;;;;32.42;21.48;;;;;;;6.27;55.80;100879.78;5009632;28;20407;-63
2021/12/06 18:56:45;;;;;;;31.40;20.08;;;;;;;6.32;55.75;100880.47;5022126;28;20065;-62
2021/12/06 18:59:16;;;;;;;32.25;21.35;;;;;;;6.28;55.49;100873.66;5029539;28;20119;-63
2021/12/06 19:01:43;;;;;;;40.78;22.25;;;;;;;6.24;55.40;100870.31;5029989;28;20104;-63
2021/12/06 19:04:10;;;;;;;29.27;19.55;;;;;;;6.15;55.66;100870.66;5029767;28;20052;-63
2021/12/06 19:06:37;;;;;;;33.92;20.35;;;;;;;6.11;55.62;100869.91;5028610;28;20046;-62
2021/12/06 19:09:12;;;;;;;33.47;21.67;;;;;;;6.12;55.77;100874.22;5029604;28;20048;-63
2021/12/06 19:11:39;;;;;;;34.70;22.75;;;;;;;6.11;55.66;100875.13;5028685;28;20049;-63
2021/12/06 19:14:26;;;;;;;30.85;20.40;;;;;;;6.04;55.62;100877.09;5029531;28;20045;-63
2021/12/06 19:16:54;;;;;;;40.40;21.83;;;;;;;6.00;55.92;100872.88;5029241;28;20061;-63
2021/12/06 19:19:21;;;;;;;38.05;21.73;;;;;;;5.98;55.99;100872.13;5029707;28;20053;-64
2021/12/06 19:21:48;;;;;;;37.55;22.90;;;;;;;6.01;55.84;100869.38;5029491;28;20104;-66
2021/12/06 19:24:15;;;;;;;48.72;28.05;;;;;;;6.01;56.02;100868.56;5022179;28;20038;-64
2021/12/06 19:26:43;;;;;;;46.00;27.70;;;;;;;6.04;56.09;100869.28;5009554;28;20160;-63
2021/12/06 19:29:10;;;;;;;44.15;26.90;;;;;;;6.11;56.04;100863.88;5009696;28;20141;-64
2021/12/06 19:31:37;;;;;;;41.05;23.92;;;;;;;6.12;55.89;100866.41;5009773;28;20077;-66
2021/12/06 19:34:04;;;;;;;38.15;24.35;;;;;;;6.01;56.29;100864.19;5009586;28;20046;-64
2021/12/06 19:36:31;;;;;;;58.83;32.80;;;;;;;6.01;56.14;100874.59;5009797;28;20053;-64
2021/12/06 19:38:57;;;;;;;86.15;39.67;;;;;;;5.81;56.37;100880.47;5009267;28;20057;-65
2021/12/06 19:41:24;;;;;;;64.22;32.83;;;;;;;5.69;56.46;100873.94;5009518;28;20049;-62
2021/12/06 19:43:56;;;;;;;58.33;29.83;;;;;;;5.63;56.28;100881.94;5009658;28;20667;-63
2021/12/06 19:46:25;;;;;;;112.32;49.60;;;;;;;5.64;56.13;100870.66;5009743;28;20409;-62
2021/12/06 19:48:53;;;;;;;78.35;39.15;;;;;;;5.67;55.97;100867.09;5009406;28;20403;-62
2021/12/06 19:51:25;;;;;;;52.28;29.42;;;;;;;5.70;55.93;100870.44;5009476;28;20049;-63
2021/12/06 19:53:54;;;;;;;42.20;25.40;;;;;;;5.74;55.86;100865.97;5009158;28;20050;-64
2021/12/06 19:56:21;;;;;;;41.17;24.67;;;;;;;5.80;55.71;100857.09;5009347;28;20042;-63
2021/12/06 19:58:48;;;;;;;45.85;26.90;;;;;;;5.83;55.92;100851.78;5019601;28;20079;-65
2021/12/06 20:01:15;;;;;;;42.80;25.65;;;;;;;5.87;55.97;100849.00;5028714;28;20099;-64
2021/12/06 20:03:46;;;;;;;43.90;26.33;;;;;;;5.94;56.16;100856.59;5029008;28;20431;-64
2021/12/06 20:06:15;;;;;;;38.83;24.40;;;;;;;5.96;56.40;100854.81;5038555;28;20041;-65
2021/12/06 20:08:42;;;;;;;46.15;26.42;;;;;;;5.98;56.67;100860.78;5036984;28;20049;-63
2021/12/06 20:11:11;;;;;;;44.72;27.02;;;;;;;5.92;57.26;100859.28;5038689;28;20056;-62
2021/12/06 20:13:40;;;;;;;47.60;26.60;;;;;;;5.77;57.87;100865.84;5038048;28;20095;-62
2021/12/06 20:16:08;;;;;;;47.20;27.25;;;;;;;5.60;57.86;100876.00;5034921;28;20045;-63
2021/12/06 20:18:35;;;;;;;44.85;26.02;;;;;;;5.54;57.62;100858.84;5035032;28;20513;-63